Time;durP1;ratioP1;P1;durP2;ratioP2;P2;SDS_P1;SDS_P2;PMS_P1;PMS_P2;Temp;Humidity;BMP_temperature;BMP_pressure;BME280_temperature;BME280_humidity;BME280_pressure;Samples;Min_cycle;Max_cycle;Signal;HPM_P1;HPM_P2
2022/12/19 00:01:56;;;;;;;23.37;14.33;;;;;;;;;;6119534;23;20893;-80
2022/12/19 00:04:22;;;;;;;25.30;13.73;;;;;;;;;;6141878;23;20384;-79
2022/12/19 00:06:48;;;;;;;17.30;11.65;;;;;;;;;;6144800;23;20185;-79
2022/12/19 00:09:15;;;;;;;23.92;12.32;;;;;;;;;;6137939;23;20139;-78
2022/12/19 00:11:41;;;;;;;19.83;12.40;;;;;;;;;;6120495;23;20176;-79
2022/12/19 00:14:07;;;;;;;20.00;12.03;;;;;;;;;;6115394;23;20428;-79
2022/12/19 00:16:33;;;;;;;28.58;15.25;;;;;;;;;;6145978;23;20400;-79
2022/12/19 00:19:00;;;;;;;22.38;13.60;;;;;;;;;;6146101;23;20155;-79
2022/12/19 00:21:29;;;;;;;22.80;13.02;;;;;;;;;;6142536;23;20152;-79
2022/12/19 00:23:55;;;;;;;21.50;13.38;;;;;;;;;;6145921;23;20160;-79
2022/12/19 00:26:22;;;;;;;24.48;13.77;;;;;;;;;;6143220;23;20161;-79
2022/12/19 00:28:52;;;;;;;25.50;11.40;;;;;;;;;;6146464;23;20159;-79
2022/12/19 00:31:19;;;;;;;21.90;13.50;;;;;;;;;;6142949;23;20500;-78
2022/12/19 00:33:45;;;;;;;21.02;11.00;;;;;;;;;;6147255;23;20157;-79
2022/12/19 00:36:13;;;;;;;20.13;12.50;;;;;;;;;;6142521;23;20496;-79
2022/12/19 00:38:39;;;;;;;23.48;13.60;;;;;;;;;;6146557;23;20164;-79
2022/12/19 00:41:09;;;;;;;23.75;13.82;;;;;;;;;;6142404;23;20154;-79
2022/12/19 00:43:35;;;;;;;23.52;14.68;;;;;;;;;;6146759;23;20825;-80
2022/12/19 00:46:02;;;;;;;19.92;13.07;;;;;;;;;;6143755;23;20532;-79
2022/12/19 00:48:29;;;;;;;25.02;13.75;;;;;;;;;;6147789;23;20187;-79
2022/12/19 00:50:59;;;;;;;19.80;12.30;;;;;;;;;;6143814;23;20161;-79
2022/12/19 00:53:25;;;;;;;20.65;10.48;;;;;;;;;;6147463;23;20400;-79
2022/12/19 00:55:51;;;;;;;23.23;13.70;;;;;;;;;;6144195;23;20148;-79
2022/12/19 00:58:17;;;;;;;19.27;9.87;;;;;;;;;;6151540;23;20427;-78
2022/12/19 01:00:43;;;;;;;18.10;13.27;;;;;;;;;;6157588;23;20376;-79
2022/12/19 01:03:09;;;;;;;22.03;14.90;;;;;;;;;;6159047;23;20453;-77
2022/12/19 01:05:37;;;;;;;16.05;11.43;;;;;;;;;;6153965;23;20403;-80
2022/12/19 01:08:03;;;;;;;24.25;11.88;;;;;;;;;;6150103;23;20188;-79
2022/12/19 01:10:29;;;;;;;21.80;14.03;;;;;;;;;;6140208;23;20153;-80
2022/12/19 01:12:55;;;;;;;20.17;12.77;;;;;;;;;;6148023;23;20366;-80
2022/12/19 01:15:21;;;;;;;17.23;11.40;;;;;;;;;;6145421;23;20159;-79
2022/12/19 01:17:48;;;;;;;15.23;9.05;;;;;;;;;;6148848;23;21015;-79
2022/12/19 01:20:15;;;;;;;27.10;16.23;;;;;;;;;;6145995;23;20156;-79
2022/12/19 01:22:41;;;;;;;23.88;13.98;;;;;;;;;;6148910;23;20369;-79
2022/12/19 01:25:07;;;;;;;22.25;14.07;;;;;;;;;;6144971;23;20222;-79
2022/12/19 01:27:34;;;;;;;23.33;14.10;;;;;;;;;;6150143;23;20161;-79
2022/12/19 01:30:00;;;;;;;23.88;14.85;;;;;;;;;;6147394;23;20630;-79
2022/12/19 01:32:26;;;;;;;22.13;12.10;;;;;;;;;;6163215;23;20164;-79
2022/12/19 01:34:52;;;;;;;28.05;15.73;;;;;;;;;;6153012;23;20157;-80
2022/12/19 01:37:18;;;;;;;21.60;13.88;;;;;;;;;;6147047;23;20176;-79
2022/12/19 01:39:44;;;;;;;20.38;13.93;;;;;;;;;;6144011;23;20207;-79
2022/12/19 01:42:14;;;;;;;23.83;14.20;;;;;;;;;;6147174;23;20191;-79
2022/12/19 01:44:40;;;;;;;28.77;14.63;;;;;;;;;;6143047;23;20149;-79
2022/12/19 01:47:11;;;;;;;27.40;16.75;;;;;;;;;;6148115;23;20150;-79
2022/12/19 01:49:40;;;;;;;25.08;14.45;;;;;;;;;;6144179;23;20240;-80
2022/12/19 01:52:07;;;;;;;16.08;10.20;;;;;;;;;;6148287;23;20159;-80
2022/12/19 01:54:35;;;;;;;21.58;13.30;;;;;;;;;;6143960;23;20222;-79
2022/12/19 01:57:02;;;;;;;21.75;13.77;;;;;;;;;;6147846;23;20177;-79
2022/12/19 01:59:30;;;;;;;19.73;12.82;;;;;;;;;;6143909;23;20175;-78
2022/12/19 02:01:59;;;;;;;22.42;13.95;;;;;;;;;;6147499;23;20669;-78
2022/12/19 02:04:27;;;;;;;22.15;15.77;;;;;;;;;;6143489;23;20234;-78
2022/12/19 02:06:54;;;;;;;19.50;12.77;;;;;;;;;;6146788;23;20191;-78
2022/12/19 02:09:20;;;;;;;27.20;15.68;;;;;;;;;;6140738;23;20743;-79
2022/12/19 02:11:46;;;;;;;16.65;10.55;;;;;;;;;;6121135;23;20152;-78
2022/12/19 02:14:12;;;;;;;33.30;14.10;;;;;;;;;;6142921;23;20474;-78
2022/12/19 02:16:52;;;;;;;23.63;15.70;;;;;;;;;;6147043;23;20388;-79
2022/12/19 02:19:37;;;;;;;21.20;14.43;;;;;;;;;;6142975;23;20133;-78
2022/12/19 02:22:06;;;;;;;19.13;11.18;;;;;;;;;;6146394;23;20353;-79
2022/12/19 02:24:50;;;;;;;17.15;10.75;;;;;;;;;;6142513;23;20199;-79
2022/12/19 02:27:32;;;;;;;8.38;7.68;;;;;;;;;;6147047;23;20214;-79
2022/12/19 02:30:03;;;;;;;23.35;14.50;;;;;;;;;;6143247;23;20155;-79
2022/12/19 02:32:40;;;;;;;20.35;11.75;;;;;;;;;;6146849;23;20160;-78
2022/12/19 02:35:21;;;;;;;21.37;13.90;;;;;;;;;;6142436;23;20178;-78
2022/12/19 02:38:06;;;;;;;20.42;12.02;;;;;;;;;;6146430;23;20440;-80
2022/12/19 02:40:33;;;;;;;19.53;12.27;;;;;;;;;;6142985;23;20524;-79
2022/12/19 02:43:01;;;;;;;15.88;11.63;;;;;;;;;;6146824;23;20392;-79
2022/12/19 02:45:29;;;;;;;20.33;12.23;;;;;;;;;;6142925;23;20158;-80
2022/12/19 02:47:56;;;;;;;15.90;6.45;;;;;;;;;;6146624;23;20180;-79
2022/12/19 02:50:22;;;;;;;17.85;12.73;;;;;;;;;;6143258;23;20867;-79
2022/12/19 02:52:48;;;;;;;15.27;8.27;;;;;;;;;;6120463;23;20239;-78
2022/12/19 02:55:17;;;;;;;18.73;13.60;;;;;;;;;;6143111;23;20513;-79
2022/12/19 02:57:43;;;;;;;22.77;12.83;;;;;;;;;;6147724;23;20168;-79
2022/12/19 03:00:13;;;;;;;11.37;9.17;;;;;;;;;;6150698;23;20469;-78
2022/12/19 03:02:46;;;;;;;11.10;6.40;;;;;;;;;;6151035;23;20866;-79
2022/12/19 03:05:24;;;;;;;18.37;12.90;;;;;;;;;;6143028;23;20323;-80
2022/12/19 03:07:55;;;;;;;16.55;10.15;;;;;;;;;;6146708;23;21176;-80
2022/12/19 03:10:41;;;;;;;18.15;11.65;;;;;;;;;;6139129;23;20169;-81
2022/12/19 03:13:09;;;;;;;19.83;11.07;;;;;;;;;;6120271;23;20760;-79
2022/12/19 03:15:36;;;;;;;18.77;11.10;;;;;;;;;;6142267;23;20909;-79
2022/12/19 03:18:03;;;;;;;19.13;11.98;;;;;;;;;;6146518;23;20176;-79
2022/12/19 03:20:39;;;;;;;21.63;12.20;;;;;;;;;;6144024;23;20177;-80
2022/12/19 03:23:05;;;;;;;19.15;12.25;;;;;;;;;;6146728;23;20135;-79
2022/12/19 03:25:34;;;;;;;16.30;11.20;;;;;;;;;;6144751;23;20182;-80
2022/12/19 03:28:02;;;;;;;12.20;7.82;;;;;;;;;;6146873;23;20153;-78
2022/12/19 03:30:28;;;;;;;14.15;9.30;;;;;;;;;;6143888;23;20164;-79
2022/12/19 03:32:55;;;;;;;7.40;5.47;;;;;;;;;;6146228;23;20201;-81
2022/12/19 03:35:22;;;;;;;18.58;12.50;;;;;;;;;;6142467;23;20152;-80
2022/12/19 03:37:50;;;;;;;17.83;12.32;;;;;;;;;;6145997;23;20170;-79
2022/12/19 03:40:17;;;;;;;24.42;14.82;;;;;;;;;;6142683;23;20162;-79
2022/12/19 03:43:10;;;;;;;19.90;13.05;;;;;;;;;;6146379;23;20156;-80
2022/12/19 03:45:39;;;;;;;22.00;13.23;;;;;;;;;;6116399;23;20164;-80
2022/12/19 03:48:11;;;;;;;20.58;13.00;;;;;;;;;;6145693;23;20149;-80
2022/12/19 03:50:46;;;;;;;13.98;10.98;;;;;;;;;;6116493;23;20654;-81
2022/12/19 03:53:36;;;;;;;23.83;13.38;;;;;;;;;;6145980;23;20511;-80
2022/12/19 03:56:10;;;;;;;22.13;13.13;;;;;;;;;;6116756;23;20161;-80
2022/12/19 03:58:38;;;;;;;17.17;10.43;;;;;;;;;;6120050;23;20179;-80
2022/12/19 04:01:04;;;;;;;18.27;10.25;;;;;;;;;;6141283;23;20802;-79
2022/12/19 04:03:31;;;;;;;16.30;11.25;;;;;;;;;;6119509;23;20165;-78
2022/12/19 04:05:58;;;;;;;16.03;11.07;;;;;;;;;;6115094;23;20267;-79
2022/12/19 04:08:24;;;;;;;18.30;11.93;;;;;;;;;;6145759;23;20936;-79
2022/12/19 04:10:53;;;;;;;13.15;6.63;;;;;;;;;;6138145;23;20253;-78
2022/12/19 04:13:23;;;;;;;16.38;9.88;;;;;;;;;;6145257;23;20621;-79
2022/12/19 04:15:51;;;;;;;27.52;13.95;;;;;;;;;;6142219;23;20559;-79
2022/12/19 04:18:18;;;;;;;12.13;10.33;;;;;;;;;;6119489;23;20184;-80
2022/12/19 04:20:46;;;;;;;20.67;12.98;;;;;;;;;;6144019;23;20404;-80
2022/12/19 04:23:17;;;;;;;27.55;16.65;;;;;;;;;;6147247;23;20369;-81
2022/12/19 04:25:46;;;;;;;17.80;13.00;;;;;;;;;;6143876;23;20207;-80
2022/12/19 04:28:32;;;;;;;16.45;9.50;;;;;;;;;;6147259;23;20164;-79
2022/12/19 04:30:59;;;;;;;19.30;11.57;;;;;;;;;;6117122;23;20243;-80
2022/12/19 04:33:25;;;;;;;22.45;15.02;;;;;;;;;;6148109;23;20439;-82
2022/12/19 04:35:51;;;;;;;22.00;14.43;;;;;;;;;;6148251;23;20161;-81
2022/12/19 04:38:17;;;;;;;10.17;9.10;;;;;;;;;;6126317;23;20428;-83
2022/12/19 04:40:43;;;;;;;18.80;12.30;;;;;;;;;;6164812;23;20376;-80
2022/12/19 04:43:09;;;;;;;19.50;12.93;;;;;;;;;;6135674;23;20388;-80
2022/12/19 04:45:35;;;;;;;18.20;11.73;;;;;;;;;;6146061;23;20765;-81
2022/12/19 04:48:01;;;;;;;20.50;13.57;;;;;;;;;;6150874;23;20379;-81
2022/12/19 04:50:27;;;;;;;21.97;11.73;;;;;;;;;;6149896;23;20414;-82
2022/12/19 04:52:56;;;;;;;20.55;13.95;;;;;;;;;;6168585;23;20364;-81
2022/12/19 04:55:22;;;;;;;29.88;12.00;;;;;;;;;;6135787;23;20156;-81
2022/12/19 04:57:48;;;;;;;25.00;15.40;;;;;;;;;;6142449;23;20184;-81
2022/12/19 05:00:14;;;;;;;22.35;12.55;;;;;;;;;;6143902;23;20390;-82
2022/12/19 05:02:49;;;;;;;24.97;12.90;;;;;;;;;;6155033;23;20164;-82
2022/12/19 05:05:18;;;;;;;14.18;10.23;;;;;;;;;;6153796;23;20408;-82
2022/12/19 05:07:45;;;;;;;24.75;13.45;;;;;;;;;;6151649;23;20184;-81
2022/12/19 05:10:11;;;;;;;18.58;12.20;;;;;;;;;;6142321;23;20176;-81
2022/12/19 05:12:53;;;;;;;16.63;11.60;;;;;;;;;;6144096;23;20165;-81
2022/12/19 05:15:19;;;;;;;17.30;10.93;;;;;;;;;;6143114;23;20908;-82
2022/12/19 05:17:50;;;;;;;25.50;14.53;;;;;;;;;;6146292;23;20408;-83
2022/12/19 05:20:16;;;;;;;13.25;10.95;;;;;;;;;;6137993;23;20388;-82
2022/12/19 05:22:42;;;;;;;23.25;16.00;;;;;;;;;;6147523;23;20192;-82
2022/12/19 05:25:08;;;;;;;23.98;14.50;;;;;;;;;;6144283;23;20181;-81
2022/12/19 05:27:34;;;;;;;15.18;10.43;;;;;;;;;;6147856;23;20227;-81
2022/12/19 05:30:00;;;;;;;25.00;15.70;;;;;;;;;;6146383;23;20199;-81
2022/12/19 05:32:30;;;;;;;14.52;10.10;;;;;;;;;;6148131;23;20364;-82
2022/12/19 05:34:56;;;;;;;22.80;15.67;;;;;;;;;;6144398;23;20156;-81
2022/12/19 05:37:25;;;;;;;26.77;15.60;;;;;;;;;;6147285;23;20411;-81
2022/12/19 05:39:51;;;;;;;22.50;13.63;;;;;;;;;;6144050;23;20376;-82
2022/12/19 05:42:17;;;;;;;22.17;13.40;;;;;;;;;;6146333;23;20494;-81
2022/12/19 05:44:43;;;;;;;29.83;16.57;;;;;;;;;;6142766;23;20465;-82
2022/12/19 05:47:09;;;;;;;17.60;12.03;;;;;;;;;;6147041;23;20433;-80
2022/12/19 05:49:35;;;;;;;29.48;15.82;;;;;;;;;;6147330;23;20673;-81
2022/12/19 05:52:01;;;;;;;9.50;8.53;;;;;;;;;;6146513;23;20157;-79
2022/12/19 05:54:27;;;;;;;30.23;16.70;;;;;;;;;;6143535;23;20873;-81
2022/12/19 05:56:53;;;;;;;20.30;11.27;;;;;;;;;;6146589;23;20539;-81
2022/12/19 05:59:22;;;;;;;15.30;12.07;;;;;;;;;;6143355;23;20506;-80
2022/12/19 06:01:48;;;;;;;20.67;13.30;;;;;;;;;;6147436;23;20774;-81
2022/12/19 06:04:14;;;;;;;25.90;15.00;;;;;;;;;;6143060;23;20159;-81
2022/12/19 06:06:40;;;;;;;9.63;7.93;;;;;;;;;;6146104;23;20439;-80
2022/12/19 06:09:07;;;;;;;22.83;15.27;;;;;;;;;;6137299;23;20376;-81
2022/12/19 06:11:33;;;;;;;19.55;12.48;;;;;;;;;;6146727;23;20462;-81
2022/12/19 06:13:59;;;;;;;19.97;13.50;;;;;;;;;;6141171;23;20153;-80
2022/12/19 06:16:25;;;;;;;32.25;15.77;;;;;;;;;;6146340;23;20689;-81
2022/12/19 06:18:51;;;;;;;19.80;10.75;;;;;;;;;;6142694;23;20568;-80
2022/12/19 06:21:18;;;;;;;11.20;8.05;;;;;;;;;;6146483;23;20325;-80
2022/12/19 06:23:45;;;;;;;18.05;12.25;;;;;;;;;;6116983;23;20157;-81
2022/12/19 06:26:12;;;;;;;18.50;12.10;;;;;;;;;;6146402;23;20168;-81
2022/12/19 06:28:38;;;;;;;18.50;14.02;;;;;;;;;;6143384;23;20427;-81
2022/12/19 06:31:05;;;;;;;23.17;15.80;;;;;;;;;;6147877;23;20518;-80
2022/12/19 06:33:31;;;;;;;26.02;16.23;;;;;;;;;;6144249;23;20632;-83
2022/12/19 06:36:07;;;;;;;29.27;15.47;;;;;;;;;;6121695;23;20171;-80
2022/12/19 06:38:34;;;;;;;20.55;13.45;;;;;;;;;;6143781;23;20450;-80
2022/12/19 06:43:56;;;;;;;16.17;10.63;;;;;;;;;;6146630;23;20604;-83
2022/12/19 06:46:22;;;;;;;26.00;16.70;;;;;;;;;;6133851;23;20337;-82
2022/12/19 06:48:48;;;;;;;21.10;15.17;;;;;;;;;;6160121;23;20384;-82
2022/12/19 06:51:14;;;;;;;22.80;15.35;;;;;;;;;;6149057;23;20372;-81
2022/12/19 06:53:40;;;;;;;21.03;14.37;;;;;;;;;;6146093;23;20187;-82
2022/12/19 06:56:14;;;;;;;10.93;9.93;;;;;;;;;;6147525;23;20380;-82
2022/12/19 06:58:41;;;;;;;16.95;11.55;;;;;;;;;;6118759;23;20427;-82
2022/12/19 07:01:07;;;;;;;15.10;10.20;;;;;;;;;;6148303;23;20343;-82
2022/12/19 07:03:38;;;;;;;16.10;10.80;;;;;;;;;;6118082;23;20606;-81
2022/12/19 07:06:04;;;;;;;16.07;12.17;;;;;;;;;;6146622;23;20175;-82
2022/12/19 07:08:30;;;;;;;19.50;12.55;;;;;;;;;;6144053;23;20479;-82
2022/12/19 07:10:57;;;;;;;16.08;11.40;;;;;;;;;;6143857;23;20156;-83
2022/12/19 07:13:23;;;;;;;19.17;13.20;;;;;;;;;;6118435;23;20156;-80
2022/12/19 07:15:50;;;;;;;10.85;9.40;;;;;;;;;;6146680;23;20377;-80
2022/12/19 07:18:16;;;;;;;17.10;12.33;;;;;;;;;;6143103;23;20654;-80
2022/12/19 07:20:42;;;;;;;17.67;10.57;;;;;;;;;;6147060;23;20376;-81
2022/12/19 07:23:11;;;;;;;18.08;11.65;;;;;;;;;;6115709;23;20605;-81
2022/12/19 07:25:40;;;;;;;17.90;11.80;;;;;;;;;;6146797;23;20389;-80
2022/12/19 07:28:07;;;;;;;16.40;8.40;;;;;;;;;;6142837;23;20721;-80
2022/12/19 07:30:33;;;;;;;17.60;10.68;;;;;;;;;;6146719;23;20376;-80
2022/12/19 07:32:59;;;;;;;18.23;11.70;;;;;;;;;;6143318;23;20494;-83
2022/12/19 07:35:25;;;;;;;18.40;12.53;;;;;;;;;;6139754;23;20382;-81
2022/12/19 07:37:51;;;;;;;10.70;8.30;;;;;;;;;;6147179;23;20418;-81
2022/12/19 07:40:17;;;;;;;11.27;9.43;;;;;;;;;;6142757;23;20397;-80
2022/12/19 07:42:44;;;;;;;13.80;10.10;;;;;;;;;;6146809;23;20355;-81
2022/12/19 07:45:10;;;;;;;12.35;9.70;;;;;;;;;;6142484;23;20169;-81
2022/12/19 07:47:37;;;;;;;14.27;9.40;;;;;;;;;;6146365;23;20573;-82
2022/12/19 07:50:03;;;;;;;17.57;10.93;;;;;;;;;;6141156;23;20512;-81
2022/12/19 07:52:29;;;;;;;9.70;7.33;;;;;;;;;;6145703;23;20686;-80
2022/12/19 07:54:55;;;;;;;13.90;11.07;;;;;;;;;;6141584;23;20372;-81
2022/12/19 07:57:21;;;;;;;13.27;10.02;;;;;;;;;;6145250;23;20447;-82
2022/12/19 07:59:47;;;;;;;17.38;11.75;;;;;;;;;;6146143;23;20153;-82
2022/12/19 08:02:13;;;;;;;19.13;12.73;;;;;;;;;;6142839;23;20617;-82
2022/12/19 08:04:39;;;;;;;15.18;10.45;;;;;;;;;;6140870;23;20375;-79
2022/12/19 08:07:05;;;;;;;14.97;11.20;;;;;;;;;;6144234;23;20243;-80
2022/12/19 08:09:31;;;;;;;17.57;12.77;;;;;;;;;;6137014;23;20376;-80
2022/12/19 08:11:58;;;;;;;21.03;8.20;;;;;;;;;;6119150;23;20393;-78
2022/12/19 08:14:24;;;;;;;17.27;11.90;;;;;;;;;;6136975;23;20379;-80
2022/12/19 08:16:50;;;;;;;12.05;9.77;;;;;;;;;;6145749;23;21083;-81
2022/12/19 08:19:16;;;;;;;9.87;8.40;;;;;;;;;;6145340;23;20175;-80
2022/12/19 08:21:42;;;;;;;8.10;7.30;;;;;;;;;;6136246;23;21646;-79
2022/12/19 08:24:08;;;;;;;15.27;10.50;;;;;;;;;;6147286;23;20379;-80
2022/12/19 08:26:34;;;;;;;9.43;7.45;;;;;;;;;;6150780;23;20229;-78
2022/12/19 08:29:09;;;;;;;12.05;10.32;;;;;;;;;;6129332;23;20156;-81
2022/12/19 08:31:35;;;;;;;18.90;12.73;;;;;;;;;;6160172;23;20234;-81
2022/12/19 08:34:01;;;;;;;16.80;11.43;;;;;;;;;;6163284;23;20391;-79
2022/12/19 08:36:27;;;;;;;15.20;11.90;;;;;;;;;;6135656;23;20687;-81
2022/12/19 08:38:53;;;;;;;10.30;9.30;;;;;;;;;;6157546;23;20534;-81
2022/12/19 08:41:20;;;;;;;18.83;11.27;;;;;;;;;;6153111;23;20380;-81
2022/12/19 08:43:50;;;;;;;16.63;10.50;;;;;;;;;;6146488;23;20451;-80
2022/12/19 08:46:16;;;;;;;12.35;10.77;;;;;;;;;;6123484;23;20749;-81
2022/12/19 08:48:42;;;;;;;17.80;12.93;;;;;;;;;;6145498;23;20161;-80
2022/12/19 08:51:10;;;;;;;9.43;6.73;;;;;;;;;;6148666;23;20499;-82
2022/12/19 08:53:38;;;;;;;13.67;10.53;;;;;;;;;;6145091;23;20421;-79
2022/12/19 08:56:08;;;;;;;13.77;9.77;;;;;;;;;;6148459;23;20374;-83
2022/12/19 08:58:34;;;;;;;14.53;11.03;;;;;;;;;;6144896;23;20431;-80
2022/12/19 09:01:03;;;;;;;17.17;11.03;;;;;;;;;;6147981;23;20976;-80
2022/12/19 09:03:30;;;;;;;10.90;9.77;;;;;;;;;;6143746;23;20380;-81
2022/12/19 09:05:56;;;;;;;16.63;9.83;;;;;;;;;;6121044;23;20180;-82
2022/12/19 09:08:23;;;;;;;19.43;12.97;;;;;;;;;;6144350;23;20431;-81
2022/12/19 09:10:49;;;;;;;15.07;9.50;;;;;;;;;;6143736;23;20376;-81
2022/12/19 09:13:15;;;;;;;7.22;6.57;;;;;;;;;;6144141;23;20372;-79
2022/12/19 09:15:41;;;;;;;12.75;11.02;;;;;;;;;;6141905;23;20481;-79
2022/12/19 09:18:07;;;;;;;14.53;9.90;;;;;;;;;;6147739;23;20505;-81
2022/12/19 09:20:33;;;;;;;13.57;10.98;;;;;;;;;;6117326;23;20399;-80
2022/12/19 09:22:59;;;;;;;13.60;11.03;;;;;;;;;;6149338;23;20136;-77
2022/12/19 09:25:25;;;;;;;18.13;9.80;;;;;;;;;;6144835;23;20375;-79
2022/12/19 09:27:51;;;;;;;13.90;10.93;;;;;;;;;;6148271;23;20398;-80
2022/12/19 09:30:17;;;;;;;14.50;9.90;;;;;;;;;;6143961;23;20732;-79
2022/12/19 09:32:43;;;;;;;14.75;10.38;;;;;;;;;;6148564;23;20455;-80
2022/12/19 09:35:09;;;;;;;12.30;9.77;;;;;;;;;;6142153;23;20473;-79
2022/12/19 09:37:35;;;;;;;11.60;8.23;;;;;;;;;;6146380;23;20429;-79
2022/12/19 09:40:01;;;;;;;8.50;7.70;;;;;;;;;;6141759;23;20460;-78
2022/12/19 09:42:46;;;;;;;15.73;11.50;;;;;;;;;;6146353;23;20376;-78
2022/12/19 09:45:18;;;;;;;14.57;9.27;;;;;;;;;;6141751;23;20153;-79
2022/12/19 09:47:47;;;;;;;12.63;10.20;;;;;;;;;;6120526;23;20736;-80
2022/12/19 09:50:31;;;;;;;12.03;9.17;;;;;;;;;;6142458;23;20843;-80
2022/12/19 09:53:00;;;;;;;12.50;9.87;;;;;;;;;;6146867;23;20552;-79
2022/12/19 09:55:28;;;;;;;19.77;10.73;;;;;;;;;;6142633;23;20376;-79
2022/12/19 09:58:00;;;;;;;13.23;10.10;;;;;;;;;;6146921;23;20423;-80
2022/12/19 10:00:32;;;;;;;11.77;10.27;;;;;;;;;;6145604;23;20705;-81
2022/12/19 10:03:16;;;;;;;13.23;10.27;;;;;;;;;;6122637;23;20483;-78
2022/12/19 10:05:47;;;;;;;16.30;11.13;;;;;;;;;;6145650;23;20388;-81
2022/12/19 10:08:15;;;;;;;18.30;11.30;;;;;;;;;;6149156;23;20443;-83
2022/12/19 10:10:51;;;;;;;15.17;9.00;;;;;;;;;;6144369;23;20376;-81
2022/12/19 10:13:33;;;;;;;11.00;8.88;;;;;;;;;;6119794;23;20534;-79
2022/12/19 10:16:02;;;;;;;13.10;10.53;;;;;;;;;;6144266;23;20163;-81
2022/12/19 10:18:47;;;;;;;14.27;9.37;;;;;;;;;;6144645;23;20451;-80
2022/12/19 10:21:35;;;;;;;11.37;9.57;;;;;;;;;;6143648;23;20789;-79
2022/12/19 10:24:19;;;;;;;21.80;11.47;;;;;;;;;;6122262;23;20392;-82
2022/12/19 10:26:58;;;;;;;15.68;11.55;;;;;;;;;;6150906;23;20439;-81
2022/12/19 10:29:34;;;;;;;10.20;8.20;;;;;;;;;;6144257;23;20207;-80
2022/12/19 10:32:04;;;;;;;10.50;7.87;;;;;;;;;;6147629;23;20406;-79
2022/12/19 10:34:35;;;;;;;11.77;8.57;;;;;;;;;;6118242;23;20414;-80
2022/12/19 10:37:08;;;;;;;13.57;9.33;;;;;;;;;;6147255;23;20873;-82
2022/12/19 10:39:53;;;;;;;11.17;9.70;;;;;;;;;;6142765;23;20369;-81
2022/12/19 10:42:42;;;;;;;18.10;11.87;;;;;;;;;;6149330;23;20383;-78
2022/12/19 10:45:17;;;;;;;10.00;8.50;;;;;;;;;;6081780;23;20919;-81
2022/12/19 10:47:43;;;;;;;10.63;9.53;;;;;;;;;;6124081;23;20396;-80
2022/12/19 10:50:13;;;;;;;10.30;7.90;;;;;;;;;;6147396;23;20455;-80
2022/12/19 10:52:50;;;;;;;6.60;6.07;;;;;;;;;;6154654;23;20345;-81
2022/12/19 10:55:34;;;;;;;11.87;10.27;;;;;;;;;;6157016;23;20925;-79
2022/12/19 10:58:10;;;;;;;14.70;9.03;;;;;;;;;;6149148;23;20508;-81
2022/12/19 11:00:36;;;;;;;13.20;8.57;;;;;;;;;;6141939;23;20384;-81
2022/12/19 11:03:12;;;;;;;13.83;9.67;;;;;;;;;;6148524;23;20361;-83
2022/12/19 11:05:49;;;;;;;9.37;8.43;;;;;;;;;;6147650;23;20392;-84
2022/12/19 11:08:21;;;;;;;6.37;5.83;;;;;;;;;;6176215;23;20458;-85
2022/12/19 11:11:08;;;;;;;11.57;9.33;;;;;;;;;;6169290;23;20373;-84
2022/12/19 11:13:38;;;;;;;13.20;9.50;;;;;;;;;;6147211;23;20399;-84
2022/12/19 11:16:06;;;;;;;9.30;8.27;;;;;;;;;;6174266;23;20329;-85
2022/12/19 11:18:42;;;;;;;10.17;8.63;;;;;;;;;;6175305;23;20468;-86
2022/12/19 11:21:20;;;;;;;12.57;9.60;;;;;;;;;;6151892;23;20407;-84
2022/12/19 11:23:50;;;;;;;10.77;8.40;;;;;;;;;;6177318;23;20373;-86
2022/12/19 11:26:40;;;;;;;11.57;8.43;;;;;;;;;;6175611;23;20375;-85
2022/12/19 11:31:45;;;;;;;8.95;8.02;;;;;;;;;;6158761;23;20447;-86
2022/12/19 11:34:22;;;;;;;9.38;8.40;;;;;;;;;;6177573;23;20148;-85
2022/12/19 11:36:48;;;;;;;9.00;8.10;;;;;;;;;;6175761;23;20290;-85
2022/12/19 11:39:19;;;;;;;11.57;8.47;;;;;;;;;;6207299;23;20387;-84
2022/12/19 11:41:50;;;;;;;9.17;8.03;;;;;;;;;;6206253;23;20356;-84
2022/12/19 11:44:29;;;;;;;7.73;6.53;;;;;;;;;;6204410;23;20399;-84
2022/12/19 11:47:16;;;;;;;8.40;7.60;;;;;;;;;;6177709;23;20823;-85
2022/12/19 11:49:53;;;;;;;8.70;7.83;;;;;;;;;;6172098;23;20409;-85
2022/12/19 11:52:38;;;;;;;9.60;8.60;;;;;;;;;;6205082;23;20870;-85
2022/12/19 11:55:19;;;;;;;8.37;7.37;;;;;;;;;;6201755;23;20376;-84
2022/12/19 11:57:46;;;;;;;8.10;7.33;;;;;;;;;;6199468;23;20411;-83
2022/12/19 12:00:20;;;;;;;11.53;7.87;;;;;;;;;;6180674;23;20415;-82
2022/12/19 12:03:05;;;;;;;6.80;6.13;;;;;;;;;;6181944;23;20396;-85
2022/12/19 12:05:36;;;;;;;7.50;6.80;;;;;;;;;;6199928;23;20434;-87
2022/12/19 12:10:53;;;;;;;9.20;7.20;;;;;;;;;;6156908;23;20477;-91
2022/12/19 12:13:19;;;;;;;10.50;7.10;;;;;;;;;;6152917;23;20387;-91
2022/12/19 12:15:50;;;;;;;8.50;7.60;;;;;;;;;;6152957;23;20504;-88
2022/12/19 12:18:35;;;;;;;9.90;7.43;;;;;;;;;;6128419;23;20506;-89
2022/12/19 12:21:20;;;;;;;7.40;6.70;;;;;;;;;;6128635;23;20507;-90
2022/12/19 12:24:10;;;;;;;7.10;6.40;;;;;;;;;;6153645;23;20438;-89
2022/12/19 12:26:46;;;;;;;9.70;8.03;;;;;;;;;;6157338;23;20962;-88
2022/12/19 12:29:12;;;;;;;9.37;7.57;;;;;;;;;;6124834;23;20443;-90
2022/12/19 12:31:44;;;;;;;7.33;6.73;;;;;;;;;;6130085;23;20415;-87
2022/12/19 12:34:10;;;;;;;7.00;6.30;;;;;;;;;;6124239;23;20398;-89
2022/12/19 12:36:48;;;;;;;8.20;7.40;;;;;;;;;;6125667;23;20428;-83
2022/12/19 12:39:42;;;;;;;7.37;6.73;;;;;;;;;;6126975;23;20388;-86
2022/12/19 12:42:08;;;;;;;8.43;7.63;;;;;;;;;;6143091;23;20811;-89
2022/12/19 12:44:38;;;;;;;6.80;6.20;;;;;;;;;;6148119;23;20432;-89
2022/12/19 12:47:24;;;;;;;13.83;8.33;;;;;;;;;;6149259;23;20388;-89
2022/12/19 12:49:58;;;;;;;7.47;6.77;;;;;;;;;;6165280;23;20691;-88
2022/12/19 12:52:35;;;;;;;10.80;7.60;;;;;;;;;;6141168;23;20490;-90
2022/12/19 12:55:05;;;;;;;8.27;7.50;;;;;;;;;;6140689;23;20402;-90
2022/12/19 12:57:38;;;;;;;7.47;6.70;;;;;;;;;;6141221;23;20415;-90
2022/12/19 13:00:20;;;;;;;7.03;6.47;;;;;;;;;;6143227;23;20432;-90
2022/12/19 13:02:50;;;;;;;6.13;5.73;;;;;;;;;;6143737;23;20408;-89
2022/12/19 13:05:24;;;;;;;7.50;6.90;;;;;;;;;;6143998;23;20420;-90
2022/12/19 13:07:56;;;;;;;8.93;7.63;;;;;;;;;;6145431;23;20407;-91
2022/12/19 13:10:31;;;;;;;5.33;4.93;;;;;;;;;;6143384;23;20427;-91
2022/12/19 13:13:19;;;;;;;;;;;;;;;;;;;;;
2022/12/19 13:15:53;;;;;;;7.00;6.50;;;;;;;;;;6167867;23;20403;-91
2022/12/19 13:18:33;;;;;;;9.10;8.20;;;;;;;;;;6136217;23;20950;-88
2022/12/19 13:21:00;;;;;;;6.73;6.20;;;;;;;;;;6142819;23;20435;-87
2022/12/19 13:23:26;;;;;;;8.33;7.50;;;;;;;;;;6164535;23;20391;-87
2022/12/19 13:25:53;;;;;;;5.70;4.40;;;;;;;;;;6170027;23;20440;-89
2022/12/19 13:28:22;;;;;;;6.83;6.23;;;;;;;;;;6138129;23;20388;-87
2022/12/19 13:31:09;;;;;;;7.43;6.73;;;;;;;;;;6134770;23;20391;-87
2022/12/19 13:34:07;;;;;;;6.90;6.30;;;;;;;;;;6128972;23;20396;-88
2022/12/19 13:36:52;;;;;;;8.00;7.27;;;;;;;;;;6128503;23;20400;-88
2022/12/19 13:39:28;;;;;;;7.40;6.80;;;;;;;;;;6139038;23;20391;-89
2022/12/19 13:44:59;;;;;;;7.57;6.73;;;;;;;;;;6160773;23;20451;-90
2022/12/19 13:47:59;;;;;;;7.07;6.50;;;;;;;;;;6139157;23;20391;-88
2022/12/19 13:50:46;;;;;;;8.70;7.53;;;;;;;;;;6146413;23;20394;-88
2022/12/19 13:53:23;;;;;;;8.37;6.27;;;;;;;;;;6144562;23;20388;-89
2022/12/19 13:55:49;;;;;;;7.97;7.27;;;;;;;;;;6141431;23;20364;-91
2022/12/19 14:01:46;;;;;;;7.87;7.23;;;;;;;;;;6118219;23;20415;-91
2022/12/19 14:04:51;;;;;;;6.27;5.73;;;;;;;;;;6138423;23;20446;-89
2022/12/19 14:10:55;;;;;;;6.43;5.33;;;;;;;;;;6151501;23;20506;-91
2022/12/19 14:16:32;;;;;;;9.77;7.20;;;;;;;;;;6162047;23;20331;-89
2022/12/19 14:19:01;;;;;;;5.80;5.40;;;;;;;;;;6135387;23;20428;-89
2022/12/19 14:21:31;;;;;;;6.63;6.03;;;;;;;;;;6134470;23;20449;-83
2022/12/19 14:24:17;;;;;;;5.90;5.50;;;;;;;;;;6117598;23;20475;-80
2022/12/19 14:26:43;;;;;;;7.17;5.40;;;;;;;;;;6119842;23;20374;-79
2022/12/19 14:29:14;;;;;;;7.40;5.23;;;;;;;;;;6121514;23;20401;-84
2022/12/19 14:31:41;;;;;;;7.33;5.80;;;;;;;;;;6116658;23;20734;-83
2022/12/19 14:34:10;;;;;;;6.67;6.13;;;;;;;;;;6129649;23;20377;-84
2022/12/19 14:36:38;;;;;;;5.63;5.13;;;;;;;;;;6124851;23;20754;-83
2022/12/19 14:39:04;;;;;;;6.53;6.13;;;;;;;;;;6102279;23;20985;-83
2022/12/19 14:44:23;;;;;;;6.30;5.70;;;;;;;;;;6130878;23;20649;-81
2022/12/19 14:47:18;;;;;;;5.83;5.30;;;;;;;;;;6116766;23;20750;-81
2022/12/19 14:49:44;;;;;;;4.53;4.10;;;;;;;;;;6066816;23;20772;-82
2022/12/19 14:52:42;;;;;;;6.33;5.87;;;;;;;;;;6118615;23;20493;-82
2022/12/19 14:55:20;;;;;;;5.47;5.20;;;;;;;;;;6099475;23;20412;-81
2022/12/19 14:57:47;;;;;;;7.27;6.47;;;;;;;;;;6122532;23;20428;-84
2022/12/19 15:00:25;;;;;;;4.63;4.33;;;;;;;;;;6115131;23;20396;-83
2022/12/19 15:02:51;;;;;;;7.80;6.17;;;;;;;;;;6120391;23;20789;-82
2022/12/19 15:05:18;;;;;;;6.67;6.03;;;;;;;;;;6116555;23;20879;-81
2022/12/19 15:07:47;;;;;;;6.67;6.07;;;;;;;;;;6119491;23;20381;-83
2022/12/19 15:10:17;;;;;;;5.03;4.73;;;;;;;;;;6111053;23;20377;-82